sensor_id;sensor_type;location;lat;lon;timestamp;temperature;humidity
71551;DHT22;59367;48.414;9.872;2023-05-07T00:00:38;15.26665115;65.38391113
71551;DHT22;59367;48.414;9.872;2023-05-07T00:01:44;15.25062943;65.26641846
71551;DHT22;59367;48.414;9.872;2023-05-07T00:02:50;15.25062943;65.184021
71551;DHT22;59367;48.414;9.872;2023-05-07T00:03:56;15.23727798;65.11077881
71551;DHT22;59367;48.414;9.872;2023-05-07T00:05:02;15.20790482;64.86663818
71551;DHT22;59367;48.414;9.872;2023-05-07T00:06:09;15.20790482;64.66064453
71551;DHT22;59367;48.414;9.872;2023-05-07T00:07:15;15.19455338;64.72930908
71551;DHT22;59367;48.414;9.872;2023-05-07T00:08:21;15.19455338;64.6987915
71551;DHT22;59367;48.414;9.872;2023-05-07T00:09:27;15.15182877;64.62860107
71551;DHT22;59367;48.414;9.872;2023-05-07T00:10:33;15.12512589;64.6987915
71551;DHT22;59367;48.414;9.872;2023-05-07T00:11:38;15.10910034;64.99633789
71551;DHT22;59367;48.414;9.872;2023-05-07T00:12:44;15.10910034;64.78881836
71551;DHT22;59367;48.414;9.872;2023-05-07T00:13:50;15.08239746;65.06347656
71551;DHT22;59367;48.414;9.872;2023-05-07T00:14:56;15.08239746;65.04211426
71551;DHT22;59367;48.414;9.872;2023-05-07T00:16:02;15.05302429;65.05889893
71551;DHT22;59367;48.414;9.872;2023-05-07T00:17:08;15.03967285;65.27557373
71551;DHT22;59367;48.414;9.872;2023-05-07T00:18:14;15.01029968;65.67382813
71551;DHT22;59367;48.414;9.872;2023-05-07T00:19:20;15.01029968;65.3717041
71551;DHT22;59367;48.414;9.872;2023-05-07T00:20:26;14.9835968;65.32592773
71551;DHT22;59367;48.414;9.872;2023-05-07T00:21:32;14.94087219;65.73638916
71551;DHT22;59367;48.414;9.872;2023-05-07T00:22:38;14.95422363;65.53039551
71551;DHT22;59367;48.414;9.872;2023-05-07T00:23:45;14.92752075;65.234375
71551;DHT22;59367;48.414;9.872;2023-05-07T00:24:50;14.94087219;65.28930664
71551;DHT22;59367;48.414;9.872;2023-05-07T00:25:56;14.89814758;65.59448242
71551;DHT22;59367;48.414;9.872;2023-05-07T00:27:02;14.89814758;65.96679688
71551;DHT22;59367;48.414;9.872;2023-05-07T00:28:09;14.88479614;66.36962891
71551;DHT22;59367;48.414;9.872;2023-05-07T00:29:16;14.87144089;66.16821289
71551;DHT22;59367;48.414;9.872;2023-05-07T00:30:23;14.84206772;65.94696045
71551;DHT22;59367;48.414;9.872;2023-05-07T00:31:28;14.84206772;65.93780518
71551;DHT22;59367;48.414;9.872;2023-05-07T00:32:35;14.82871628;66.06750488
71551;DHT22;59367;48.414;9.872;2023-05-07T00:33:41;14.81536484;66.2322998
71551;DHT22;59367;48.414;9.872;2023-05-07T00:34:47;14.81536484;66.67633057
71551;DHT22;59367;48.414;9.872;2023-05-07T00:35:53;14.79934311;66.73126221
71551;DHT22;59367;48.414;9.872;2023-05-07T00:36:58;14.78599167;67.00592041
71551;DHT22;59367;48.414;9.872;2023-05-07T00:38:05;14.77264023;66.70837402
71551;DHT22;59367;48.414;9.872;2023-05-07T00:39:11;14.78599167;66.61071777
71551;DHT22;59367;48.414;9.872;2023-05-07T00:40:17;14.7566185;66.33148193
71551;DHT22;59367;48.414;9.872;2023-05-07T00:41:23;14.79934311;66.16821289
71551;DHT22;59367;48.414;9.872;2023-05-07T00:42:29;14.78599167;66.05224609
71551;DHT22;59367;48.414;9.872;2023-05-07T00:43:36;14.7566185;65.9942627
71551;DHT22;59367;48.414;9.872;2023-05-07T00:44:41;14.72991562;65.8782959
71551;DHT22;59367;48.414;9.872;2023-05-07T00:45:47;14.74326706;65.93933105
71551;DHT22;59367;48.414;9.872;2023-05-07T00:46:54;14.70054245;65.965271
71551;DHT22;59367;48.414;9.872;2023-05-07T00:48:02;14.70054245;65.95611572
71551;DHT22;59367;48.414;9.872;2023-05-07T00:49:08;14.70054245;66.04766846
71551;DHT22;59367;48.414;9.872;2023-05-07T00:50:14;14.68719101;65.96221924
71551;DHT22;59367;48.414;9.872;2023-05-07T00:51:20;14.66048813;66.34216309
71551;DHT22;59367;48.414;9.872;2023-05-07T00:52:27;14.67383957;66.6305542
71551;DHT22;59367;48.414;9.872;2023-05-07T00:53:35;14.6444664;66.65649414
71551;DHT22;59367;48.414;9.872;2023-05-07T00:54:43;14.6444664;66.45050049
71551;DHT22;59367;48.414;9.872;2023-05-07T00:55:50;14.6444664;66.36047363
71551;DHT22;59367;48.414;9.872;2023-05-07T00:56:57;14.6177597;66.22772217
71551;DHT22;59367;48.414;9.872;2023-05-07T00:58:03;14.58838654;66.19415283
71551;DHT22;59367;48.414;9.872;2023-05-07T00:59:10;14.5750351;66.32843018
71551;DHT22;59367;48.414;9.872;2023-05-07T01:00:17;14.6177597;66.61224365
71551;DHT22;59367;48.414;9.872;2023-05-07T01:01:24;14.5750351;66.92199707
71551;DHT22;59367;48.414;9.872;2023-05-07T01:02:31;14.58838654;66.9921875
71551;DHT22;59367;48.414;9.872;2023-05-07T01:03:36;14.60173798;66.70837402
71551;DHT22;59367;48.414;9.872;2023-05-07T01:04:43;14.6177597;66.77093506
71551;DHT22;59367;48.414;9.872;2023-05-07T01:05:51;14.58838654;66.78466797
71551;DHT22;59367;48.414;9.872;2023-05-07T01:07:00;14.5750351;66.54663086
71551;DHT22;59367;48.414;9.872;2023-05-07T01:08:07;14.56168365;66.69311523
71551;DHT22;59367;48.414;9.872;2023-05-07T01:09:14;14.60173798;66.58935547
71551;DHT22;59367;48.414;9.872;2023-05-07T01:10:21;14.5750351;66.63513184
71551;DHT22;59367;48.414;9.872;2023-05-07T01:11:28;14.56168365;66.43676758
71551;DHT22;59367;48.414;9.872;2023-05-07T01:12:34;14.56168365;66.33758545
71551;DHT22;59367;48.414;9.872;2023-05-07T01:13:42;14.5750351;66.16210938
71551;DHT22;59367;48.414;9.872;2023-05-07T01:14:48;14.53231049;65.86456299
71551;DHT22;59367;48.414;9.872;2023-05-07T01:15:54;14.51895905;65.67687988
71551;DHT22;59367;48.414;9.872;2023-05-07T01:17:01;14.5056076;65.60058594
71551;DHT22;59367;48.414;9.872;2023-05-07T01:18:07;14.54566193;65.77301025
71551;DHT22;59367;48.414;9.872;2023-05-07T01:19:13;14.54566193;66.23535156
71551;DHT22;59367;48.414;9.872;2023-05-07T01:20:22;14.5056076;66.20941162
71551;DHT22;59367;48.414;9.872;2023-05-07T01:21:28;14.48958588;66.29638672
71551;DHT22;59367;48.414;9.872;2023-05-07T01:22:39;14.5056076;66.13006592
71551;DHT22;59367;48.414;9.872;2023-05-07T01:23:46;14.48958588;66.41387939
71551;DHT22;59367;48.414;9.872;2023-05-07T01:24:53;14.47623444;65.97900391
71551;DHT22;59367;48.414;9.872;2023-05-07T01:25:59;14.48958588;66.29638672
71551;DHT22;59367;48.414;9.872;2023-05-07T01:27:05;14.46021271;66.63513184
71551;DHT22;59367;48.414;9.872;2023-05-07T01:28:11;14.46021271;66.98150635
71551;DHT22;59367;48.414;9.872;2023-05-07T01:29:17;14.44419098;66.53442383
71551;DHT22;59367;48.414;9.872;2023-05-07T01:30:25;14.46021271;66.3192749
71551;DHT22;59367;48.414;9.872;2023-05-07T01:31:32;14.4174881;66.15447998
71551;DHT22;59367;48.414;9.872;2023-05-07T01:32:41;14.44419098;66.07971191
71551;DHT22;59367;48.414;9.872;2023-05-07T01:33:49;14.4174881;66.10412598
71551;DHT22;59367;48.414;9.872;2023-05-07T01:34:58;14.43083954;66.4642334
71551;DHT22;59367;48.414;9.872;2023-05-07T01:36:06;14.4174881;66.56036377
71551;DHT22;59367;48.414;9.872;2023-05-07T01:37:13;14.43083954;66.34521484
71551;DHT22;59367;48.414;9.872;2023-05-07T01:38:21;14.43083954;66.00189209
71551;DHT22;59367;48.414;9.872;2023-05-07T01:39:29;14.4174881;65.89813232
71551;DHT22;59367;48.414;9.872;2023-05-07T01:40:37;14.40413666;65.7913208
71551;DHT22;59367;48.414;9.872;2023-05-07T01:41:44;14.4174881;65.7333374
71551;DHT22;59367;48.414;9.872;2023-05-07T01:42:50;14.40413666;65.27404785
71551;DHT22;59367;48.414;9.872;2023-05-07T01:43:57;14.37475967;65.12451172
71551;DHT22;59367;48.414;9.872;2023-05-07T01:45:04;14.38811493;65.44799805
71551;DHT22;59367;48.414;9.872;2023-05-07T01:46:10;14.38811493;65.31524658
71551;DHT22;59367;48.414;9.872;2023-05-07T01:47:19;14.36140823;65.08178711
71551;DHT22;59367;48.414;9.872;2023-05-07T01:48:26;14.34805679;65.35797119
71551;DHT22;59367;48.414;9.872;2023-05-07T01:49:32;14.33203506;65.22064209
71551;DHT22;59367;48.414;9.872;2023-05-07T01:50:39;14.31868362;65.06500244
71551;DHT22;59367;48.414;9.872;2023-05-07T01:51:45;14.31868362;65.13671875
71551;DHT22;59367;48.414;9.872;2023-05-07T01:52:53;14.28931046;64.98718262
71551;DHT22;59367;48.414;9.872;2023-05-07T01:53:59;14.27595901;64.9230957
71551;DHT22;59367;48.414;9.872;2023-05-07T01:55:06;14.24925613;65.13671875
71551;DHT22;59367;48.414;9.872;2023-05-07T01:56:12;14.24925613;65.26031494
71551;DHT22;59367;48.414;9.872;2023-05-07T01:57:18;14.23323441;65.27862549
71551;DHT22;59367;48.414;9.872;2023-05-07T01:58:24;14.21988297;65.26489258
71551;DHT22;59367;48.414;9.872;2023-05-07T01:59:30;14.20653152;65.36712646
71551;DHT22;59367;48.414;9.872;2023-05-07T02:00:36;14.1905098;65.33355713
71551;DHT22;59367;48.414;9.872;2023-05-07T02:01:42;14.17715836;65.24810791
71551;DHT22;59367;48.414;9.872;2023-05-07T02:02:48;14.16380692;65.27862549
71551;DHT22;59367;48.414;9.872;2023-05-07T02:03:55;14.13443375;65.22064209
71551;DHT22;59367;48.414;9.872;2023-05-07T02:05:01;14.10772705;65.13366699
71551;DHT22;59367;48.414;9.872;2023-05-07T02:06:07;14.09437561;65.17333984
71551;DHT22;59367;48.414;9.872;2023-05-07T02:07:13;14.06500244;65.10620117
71551;DHT22;59367;48.414;9.872;2023-05-07T02:08:19;14.03562927;65.49377441
71551;DHT22;59367;48.414;9.872;2023-05-07T02:09:24;14.02227783;65.63720703
71551;DHT22;59367;48.414;9.872;2023-05-07T02:10:30;14.00892639;65.76843262
71551;DHT22;59367;48.414;9.872;2023-05-07T02:11:37;14.00892639;65.88287354
71551;DHT22;59367;48.414;9.872;2023-05-07T02:12:42;13.97955322;65.72265625
71551;DHT22;59367;48.414;9.872;2023-05-07T02:13:49;13.9394989;65.6829834
71551;DHT22;59367;48.414;9.872;2023-05-07T02:14:55;13.95285034;65.92407227
71551;DHT22;59367;48.414;9.872;2023-05-07T02:16:01;13.9394989;65.81878662
71551;DHT22;59367;48.414;9.872;2023-05-07T02:17:07;13.92347717;66.03393555
71551;DHT22;59367;48.414;9.872;2023-05-07T02:18:13;13.92347717;66.53442383
71551;DHT22;59367;48.414;9.872;2023-05-07T02:19:19;13.91012573;66.65344238
71551;DHT22;59367;48.414;9.872;2023-05-07T02:20:25;13.88075256;66.51916504
71551;DHT22;59367;48.414;9.872;2023-05-07T02:21:31;13.88075256;66.9921875
71551;DHT22;59367;48.414;9.872;2023-05-07T02:22:37;13.86739731;66.74346924
71551;DHT22;59367;48.414;9.872;2023-05-07T02:23:43;13.86739731;66.53747559
71551;DHT22;59367;48.414;9.872;2023-05-07T02:24:49;13.86739731;66.48712158
71551;DHT22;59367;48.414;9.872;2023-05-07T02:25:55;13.85404587;66.44592285
71551;DHT22;59367;48.414;9.872;2023-05-07T02:27:01;13.84069443;66.61071777
71551;DHT22;59367;48.414;9.872;2023-05-07T02:28:07;13.85404587;66.86859131
71551;DHT22;59367;48.414;9.872;2023-05-07T02:29:13;13.85404587;66.88690186
71551;DHT22;59367;48.414;9.872;2023-05-07T02:30:19;13.85404587;66.57409668
71551;DHT22;59367;48.414;9.872;2023-05-07T02:31:26;13.8246727;66.62902832
71551;DHT22;59367;48.414;9.872;2023-05-07T02:32:33;13.8246727;66.47033691
71551;DHT22;59367;48.414;9.872;2023-05-07T02:33:39;13.8246727;66.50085449
71551;DHT22;59367;48.414;9.872;2023-05-07T02:34:45;13.84069443;66.6015625
71551;DHT22;59367;48.414;9.872;2023-05-07T02:35:51;13.8246727;66.46118164
71551;DHT22;59367;48.414;9.872;2023-05-07T02:36:57;13.81132126;66.40014648
71551;DHT22;59367;48.414;9.872;2023-05-07T02:38:04;13.81132126;66.1819458
71551;DHT22;59367;48.414;9.872;2023-05-07T02:39:10;13.81132126;65.97442627
71551;DHT22;59367;48.414;9.872;2023-05-07T02:40:17;13.81132126;66.02478027
71551;DHT22;59367;48.414;9.872;2023-05-07T02:41:23;13.75524521;65.81878662
71551;DHT22;59367;48.414;9.872;2023-05-07T02:42:29;13.74189377;65.92102051
71551;DHT22;59367;48.414;9.872;2023-05-07T02:43:35;13.74189377;65.99273682
71551;DHT22;59367;48.414;9.872;2023-05-07T02:44:41;13.72587204;65.74249268
71551;DHT22;59367;48.414;9.872;2023-05-07T02:45:47;13.74189377;65.71502686
71551;DHT22;59367;48.414;9.872;2023-05-07T02:46:53;13.69916916;65.90270996
71551;DHT22;59367;48.414;9.872;2023-05-07T02:47:59;13.69916916;65.99731445
71551;DHT22;59367;48.414;9.872;2023-05-07T02:49:05;13.65377426;65.92559814
71551;DHT22;59367;48.414;9.872;2023-05-07T02:50:13;13.65377426;65.75012207
71551;DHT22;59367;48.414;9.872;2023-05-07T02:51:20;13.65377426;65.85540771
71551;DHT22;59367;48.414;9.872;2023-05-07T02:52:26;13.62707138;66.69311523
71551;DHT22;59367;48.414;9.872;2023-05-07T02:53:32;13.62707138;67.04711914
71551;DHT22;59367;48.414;9.872;2023-05-07T02:54:38;13.61104584;66.78924561
71551;DHT22;59367;48.414;9.872;2023-05-07T02:55:45;13.5976944;66.51153564
71551;DHT22;59367;48.414;9.872;2023-05-07T02:56:50;13.58434296;66.43218994
71551;DHT22;59367;48.414;9.872;2023-05-07T02:57:55;13.58434296;66.61682129
71551;DHT22;59367;48.414;9.872;2023-05-07T02:59:01;13.55496979;66.83044434
71551;DHT22;59367;48.414;9.872;2023-05-07T03:00:16;13.56832123;67.09594727
71551;DHT22;59367;48.414;9.872;2023-05-07T03:01:22;13.55496979;67.18292236
71551;DHT22;59367;48.414;9.872;2023-05-07T03:02:28;13.56832123;66.78161621
71551;DHT22;59367;48.414;9.872;2023-05-07T03:03:34;13.55496979;66.39556885
71551;DHT22;59367;48.414;9.872;2023-05-07T03:04:43;13.55496979;66.56188965
71551;DHT22;59367;48.414;9.872;2023-05-07T03:05:49;13.51224518;66.3192749
71551;DHT22;59367;48.414;9.872;2023-05-07T03:06:55;13.54161835;66.37420654
71551;DHT22;59367;48.414;9.872;2023-05-07T03:08:01;13.51224518;66.56646729
71551;DHT22;59367;48.414;9.872;2023-05-07T03:09:07;13.49889374;66.61224365
71551;DHT22;59367;48.414;9.872;2023-05-07T03:10:14;13.4855423;66.66107178
71551;DHT22;59367;48.414;9.872;2023-05-07T03:11:20;13.47219086;66.78466797
71551;DHT22;59367;48.414;9.872;2023-05-07T03:12:26;13.45616913;66.64428711
71551;DHT22;59367;48.414;9.872;2023-05-07T03:13:32;13.45616913;66.67480469
71551;DHT22;59367;48.414;9.872;2023-05-07T03:14:38;13.47219086;66.97235107
71551;DHT22;59367;48.414;9.872;2023-05-07T03:15:45;13.44281769;67.25158691
71551;DHT22;59367;48.414;9.872;2023-05-07T03:16:51;13.47219086;67.11883545
71551;DHT22;59367;48.414;9.872;2023-05-07T03:17:56;13.45616913;66.63513184
71551;DHT22;59367;48.414;9.872;2023-05-07T03:19:03;13.42946625;66.54205322
71551;DHT22;59367;48.414;9.872;2023-05-07T03:20:11;13.42946625;66.38336182
71551;DHT22;59367;48.414;9.872;2023-05-07T03:21:17;13.44281769;66.18041992
71551;DHT22;59367;48.414;9.872;2023-05-07T03:22:22;13.42946625;65.81878662
71551;DHT22;59367;48.414;9.872;2023-05-07T03:23:28;13.40009308;65.56396484
71551;DHT22;59367;48.414;9.872;2023-05-07T03:24:34;13.40009308;65.7409668
71551;DHT22;59367;48.414;9.872;2023-05-07T03:25:40;13.38674164;66.25976563
71551;DHT22;59367;48.414;9.872;2023-05-07T03:26:46;13.35736465;66.47949219
71551;DHT22;59367;48.414;9.872;2023-05-07T03:27:52;13.35736465;66.45050049
71551;DHT22;59367;48.414;9.872;2023-05-07T03:28:58;13.35736465;66.59851074
71551;DHT22;59367;48.414;9.872;2023-05-07T03:30:05;13.33066177;66.1529541
71551;DHT22;59367;48.414;9.872;2023-05-07T03:31:11;13.33066177;66.12243652
71551;DHT22;59367;48.414;9.872;2023-05-07T03:32:18;13.33066177;66.02478027
71551;DHT22;59367;48.414;9.872;2023-05-07T03:33:24;13.3012886;65.72418213
71551;DHT22;59367;48.414;9.872;2023-05-07T03:34:30;13.3012886;65.43426514
71551;DHT22;59367;48.414;9.872;2023-05-07T03:35:36;13.27458572;65.48156738
71551;DHT22;59367;48.414;9.872;2023-05-07T03:36:42;13.28793716;65.52581787
71551;DHT22;59367;48.414;9.872;2023-05-07T03:37:49;13.3012886;65.52734375
71551;DHT22;59367;48.414;9.872;2023-05-07T03:38:55;13.27458572;65.76080322
71551;DHT22;59367;48.414;9.872;2023-05-07T03:40:01;13.258564;66.1315918
71551;DHT22;59367;48.414;9.872;2023-05-07T03:41:07;13.23186111;66.62597656
71551;DHT22;59367;48.414;9.872;2023-05-07T03:42:14;13.21850967;66.3192749
71551;DHT22;59367;48.414;9.872;2023-05-07T03:43:20;13.20248795;65.97442627
71551;DHT22;59367;48.414;9.872;2023-05-07T03:44:26;13.17578506;65.81573486
71551;DHT22;59367;48.414;9.872;2023-05-07T03:45:31;13.20248795;65.80963135
71551;DHT22;59367;48.414;9.872;2023-05-07T03:46:38;13.17578506;66.31317139
71551;DHT22;59367;48.414;9.872;2023-05-07T03:47:44;13.15976334;66.10412598
71551;DHT22;59367;48.414;9.872;2023-05-07T03:48:50;13.15976334;66.17279053
71551;DHT22;59367;48.414;9.872;2023-05-07T03:49:56;13.1464119;66.23077393
71551;DHT22;59367;48.414;9.872;2023-05-07T03:51:03;13.1197052;66.02935791
71551;DHT22;59367;48.414;9.872;2023-05-07T03:52:09;13.10368347;65.81573486
71551;DHT22;59367;48.414;9.872;2023-05-07T03:53:16;13.1197052;65.61279297
71551;DHT22;59367;48.414;9.872;2023-05-07T03:54:22;13.10368347;65.72265625
71551;DHT22;59367;48.414;9.872;2023-05-07T03:55:28;13.10368347;65.93780518
71551;DHT22;59367;48.414;9.872;2023-05-07T03:56:33;13.10368347;66.3192749
71551;DHT22;59367;48.414;9.872;2023-05-07T03:57:39;13.06362915;66.79534912
71551;DHT22;59367;48.414;9.872;2023-05-07T03:58:45;13.09033203;66.63360596
71551;DHT22;59367;48.414;9.872;2023-05-07T03:59:50;13.07698059;66.29638672
71551;DHT22;59367;48.414;9.872;2023-05-07T04:00:57;13.06362915;66.43218994
71551;DHT22;59367;48.414;9.872;2023-05-07T04:02:03;13.04760742;66.60614014
71551;DHT22;59367;48.414;9.872;2023-05-07T04:03:09;13.07698059;66.48254395
71551;DHT22;59367;48.414;9.872;2023-05-07T04:04:14;13.06362915;66.19567871
71551;DHT22;59367;48.414;9.872;2023-05-07T04:05:20;13.06362915;66.73583984
71551;DHT22;59367;48.414;9.872;2023-05-07T04:06:26;13.04760742;67.10662842
71551;DHT22;59367;48.414;9.872;2023-05-07T04:07:32;13.07698059;67.48199463
71551;DHT22;59367;48.414;9.872;2023-05-07T04:08:39;13.06362915;67.64068604
71551;DHT22;59367;48.414;9.872;2023-05-07T04:09:44;13.07698059;67.78869629
71551;DHT22;59367;48.414;9.872;2023-05-07T04:10:50;13.07698059;67.84820557
71551;DHT22;59367;48.414;9.872;2023-05-07T04:11:59;13.09033203;67.01507568
71551;DHT22;59367;48.414;9.872;2023-05-07T04:13:05;13.09033203;66.95556641
71551;DHT22;59367;48.414;9.872;2023-05-07T04:14:11;13.09033203;66.85791016
71551;DHT22;59367;48.414;9.872;2023-05-07T04:15:17;13.07698059;66.57104492
71551;DHT22;59367;48.414;9.872;2023-05-07T04:16:22;13.09033203;66.24908447
71551;DHT22;59367;48.414;9.872;2023-05-07T04:17:28;13.10368347;66.26281738
71551;DHT22;59367;48.414;9.872;2023-05-07T04:18:34;13.1197052;65.88897705
71551;DHT22;59367;48.414;9.872;2023-05-07T04:19:40;13.13306046;65.76843262
71551;DHT22;59367;48.414;9.872;2023-05-07T04:20:46;13.10368347;65.65093994
71551;DHT22;59367;48.414;9.872;2023-05-07T04:21:52;13.10368347;65.57769775
71551;DHT22;59367;48.414;9.872;2023-05-07T04:22:58;13.06362915;65.72723389
71551;DHT22;59367;48.414;9.872;2023-05-07T04:24:05;13.06362915;65.63262939
71551;DHT22;59367;48.414;9.872;2023-05-07T04:25:11;13.06362915;65.56243896
71551;DHT22;59367;48.414;9.872;2023-05-07T04:26:17;13.06362915;65.74554443
71551;DHT22;59367;48.414;9.872;2023-05-07T04:27:23;13.02090454;65.60516357
71551;DHT22;59367;48.414;9.872;2023-05-07T04:28:29;13.03425598;65.42205811
71551;DHT22;59367;48.414;9.872;2023-05-07T04:29:35;13.03425598;65.30761719
71551;DHT22;59367;48.414;9.872;2023-05-07T04:30:41;13.00488281;65.59448242
71551;DHT22;59367;48.414;9.872;2023-05-07T04:31:47;13.00488281;65.66467285
71551;DHT22;59367;48.414;9.872;2023-05-07T04:32:53;13.02090454;65.54412842
71551;DHT22;59367;48.414;9.872;2023-05-07T04:33:58;12.97817993;65.69061279
71551;DHT22;59367;48.414;9.872;2023-05-07T04:35:04;12.97817993;65.58990479
71551;DHT22;59367;48.414;9.872;2023-05-07T04:36:11;12.97817993;65.61889648
71551;DHT22;59367;48.414;9.872;2023-05-07T04:37:17;12.96482849;65.5456543
71551;DHT22;59367;48.414;9.872;2023-05-07T04:38:23;12.96482849;65.56396484
71551;DHT22;59367;48.414;9.872;2023-05-07T04:39:30;12.96482849;65.84320068
71551;DHT22;59367;48.414;9.872;2023-05-07T04:40:37;12.93545532;66.41998291
71551;DHT22;59367;48.414;9.872;2023-05-07T04:41:43;12.93545532;66.99981689
71551;DHT22;59367;48.414;9.872;2023-05-07T04:42:50;12.94880676;67.2164917
71551;DHT22;59367;48.414;9.872;2023-05-07T04:43:55;12.94880676;67.15698242
71551;DHT22;59367;48.414;9.872;2023-05-07T04:45:01;12.94880676;66.9631958
71551;DHT22;59367;48.414;9.872;2023-05-07T04:46:07;12.94880676;66.64886475
71551;DHT22;59367;48.414;9.872;2023-05-07T04:47:13;12.97817993;66.38793945
71551;DHT22;59367;48.414;9.872;2023-05-07T04:48:19;12.99153137;66.29180908
71551;DHT22;59367;48.414;9.872;2023-05-07T04:49:25;13.00488281;66.36352539
71551;DHT22;59367;48.414;9.872;2023-05-07T04:50:31;13.02090454;66.50238037
71551;DHT22;59367;48.414;9.872;2023-05-07T04:51:36;13.00488281;66.65802002
71551;DHT22;59367;48.414;9.872;2023-05-07T04:52:42;13.03425598;66.64276123
71551;DHT22;59367;48.414;9.872;2023-05-07T04:53:48;13.03425598;66.85943604
71551;DHT22;59367;48.414;9.872;2023-05-07T04:54:53;13.03425598;66.99523926
71551;DHT22;59367;48.414;9.872;2023-05-07T04:56:02;13.06362915;67.56896973
71551;DHT22;59367;48.414;9.872;2023-05-07T04:57:08;13.07698059;67.85583496
71551;DHT22;59367;48.414;9.872;2023-05-07T04:58:15;13.1197052;67.93365479
71551;DHT22;59367;48.414;9.872;2023-05-07T04:59:21;13.13306046;67.81616211
71551;DHT22;59367;48.414;9.872;2023-05-07T05:00:28;13.1464119;67.9473877
71551;DHT22;59367;48.414;9.872;2023-05-07T05:01:34;13.15976334;68.50128174
71551;DHT22;59367;48.414;9.872;2023-05-07T05:02:40;13.18913651;68.7210083
71551;DHT22;59367;48.414;9.872;2023-05-07T05:03:46;13.21850967;68.39294434
71551;DHT22;59367;48.414;9.872;2023-05-07T05:04:53;13.24521255;68.309021
71551;DHT22;59367;48.414;9.872;2023-05-07T05:05:59;13.258564;68.45703125
71551;DHT22;59367;48.414;9.872;2023-05-07T05:07:06;13.3012886;68.4753418
71551;DHT22;59367;48.414;9.872;2023-05-07T05:08:12;13.34401321;68.10913086
71551;DHT22;59367;48.414;9.872;2023-05-07T05:09:17;13.37338638;68.0847168
71551;DHT22;59367;48.414;9.872;2023-05-07T05:10:24;13.40009308;68.01147461
71551;DHT22;59367;48.414;9.872;2023-05-07T05:11:31;13.40009308;67.6651001
71551;DHT22;59367;48.414;9.872;2023-05-07T05:12:37;13.41344452;67.48199463
71551;DHT22;59367;48.414;9.872;2023-05-07T05:13:42;13.41344452;67.36602783
71551;DHT22;59367;48.414;9.872;2023-05-07T05:14:47;13.42946625;67.11120605
71551;DHT22;59367;48.414;9.872;2023-05-07T05:15:53;13.44281769;67.40875244
71551;DHT22;59367;48.414;9.872;2023-05-07T05:16:59;13.45616913;67.60864258
71551;DHT22;59367;48.414;9.872;2023-05-07T05:18:05;13.4855423;67.50488281
71551;DHT22;59367;48.414;9.872;2023-05-07T05:19:11;13.49889374;67.32025146
71551;DHT22;59367;48.414;9.872;2023-05-07T05:20:18;13.52826691;67.2668457
71551;DHT22;59367;48.414;9.872;2023-05-07T05:21:24;13.54161835;67.27905273
71551;DHT22;59367;48.414;9.872;2023-05-07T05:22:30;13.52826691;67.2164917
71551;DHT22;59367;48.414;9.872;2023-05-07T05:23:35;13.52826691;67.20733643
71551;DHT22;59367;48.414;9.872;2023-05-07T05:24:42;13.5976944;67.1295166
71551;DHT22;59367;48.414;9.872;2023-05-07T05:25:48;13.56832123;67.19665527
71551;DHT22;59367;48.414;9.872;2023-05-07T05:26:55;13.58434296;67.47283936
71551;DHT22;59367;48.414;9.872;2023-05-07T05:28:00;13.64042282;67.78717041
71551;DHT22;59367;48.414;9.872;2023-05-07T05:29:06;13.6671257;67.88024902
71551;DHT22;59367;48.414;9.872;2023-05-07T05:30:13;13.68314743;67.92144775
71551;DHT22;59367;48.414;9.872;2023-05-07T05:31:20;13.6671257;68.24493408
71551;DHT22;59367;48.414;9.872;2023-05-07T05:32:26;13.74189377;67.93060303
71551;DHT22;59367;48.414;9.872;2023-05-07T05:33:31;13.74189377;67.84210205
71551;DHT22;59367;48.414;9.872;2023-05-07T05:34:37;13.78461838;67.84210205
71551;DHT22;59367;48.414;9.872;2023-05-07T05:35:44;13.76859665;67.92602539
71551;DHT22;59367;48.414;9.872;2023-05-07T05:36:49;13.78461838;68.19610596
71551;DHT22;59367;48.414;9.872;2023-05-07T05:37:55;13.81132126;68.08166504
71551;DHT22;59367;48.414;9.872;2023-05-07T05:39:02;13.79796982;68.02062988
71551;DHT22;59367;48.414;9.872;2023-05-07T05:40:09;13.85404587;68.23577881
71551;DHT22;59367;48.414;9.872;2023-05-07T05:41:15;13.81132126;68.51501465
71551;DHT22;59367;48.414;9.872;2023-05-07T05:42:22;13.8246727;68.70422363
71551;DHT22;59367;48.414;9.872;2023-05-07T05:43:28;13.86739731;68.84002686
71551;DHT22;59367;48.414;9.872;2023-05-07T05:44:34;13.86739731;68.89953613
71551;DHT22;59367;48.414;9.872;2023-05-07T05:45:39;13.89677429;68.94226074
71551;DHT22;59367;48.414;9.872;2023-05-07T05:46:46;13.92347717;68.94683838
71551;DHT22;59367;48.414;9.872;2023-05-07T05:47:52;13.95285034;68.82324219
71551;DHT22;59367;48.414;9.872;2023-05-07T05:48:58;13.97955322;68.84918213
71551;DHT22;59367;48.414;9.872;2023-05-07T05:50:04;13.97955322;68.91784668
71551;DHT22;59367;48.414;9.872;2023-05-07T05:51:10;13.99557495;68.90106201
71551;DHT22;59367;48.414;9.872;2023-05-07T05:52:16;14.00892639;68.82324219
71551;DHT22;59367;48.414;9.872;2023-05-07T05:53:21;14.051651;69.02008057